Etusivu
METAR-TAF:

METAR-TAF

Lentoasemat :

Cap-Haïtien, Haiti

Leveyspiiri: 19-43-59N, Pituuspiiri: 72-11-41W, korkeus merenpinnasta: 3 m

Tämänhetkinen sää

Tämä raportti tehtiin 9 tuntia ja 32 minuuttia sitten, kello 17.51 UTC
Tuuli 12 kn pohjoisesta/koillisesta
Lämpötila 26°C
Kosteus 51%
Ilmanpaine 1015 hPa
Näkyvyys 10 km tai enemmän
Muutamia pilviä 3000 ft:n korkeudessa

METAR: MTCH 231751Z 03012KT 9999 FEW030 26/15 Q1015

Aika: 22:23 (03:23 UTC)

Sääennuste

Tämä raportti tehtiin 10 tuntia ja 23 minuuttia sitten, kello 17.00 UTC
Ennuste voimassa 23. päivästä klo 18 UTC - 24. päivään klo 18 UTC
Tuuli 10 kn idästä
Näkyvyys 10 km tai enemmän
Muutamia pilviä 2800 ft:n korkeudessa
Tulossa
24. päivästä klo 04 UTC - 24. päivään klo 06 UTC
Tuuli 2 kn eri suunnista
From 24. päivästä klo 1500 UTC
Tuuli 10 kn koillisesta
Näkyvyys: 9000 m
Muutamia pilviä 2500 ft:n korkeudessa

TAF: MTCH 231700Z 2318/2418 10010KT 9999 FEW028 BECMG 2404/2406 VRB02KT FM241500 05010KT 9000 FEW025

Säähavainnot ja -ennusteet yli 4000 lentoasemalta (METAR- ja TAF-raportit).

Käytössä olevat sääasemat on merkitty karttaan keltaisilla ja punaisilla pisteillä.

Aseta hiiri pisteen päälle nähdäksesi sääaseman nimen.

Klikkaa sitten nähdäksesi säähavainnot ja -ennusteet.

Kartan vaihtaminen: klikkaa mustalla rastilla varustettuja vihreitä pisteitä, niin voit zoomata sisään; viivalla varustettua vihreää pistettä, niin voit zoomata ulos tai vihreitä nuolia, niin pääset viereisille kartoille.


METAR-TAF: